sensor_id;sensor_type;location;lat;lon;timestamp;P1;durP1;ratioP1;P2;durP2;ratioP2
30287;SDS011;17103;48.316;11.558;2023-04-08T00:02:06;5.68;;;4.45;;
30287;SDS011;17103;48.316;11.558;2023-04-08T00:04:32;6.00;;;4.30;;
30287;SDS011;17103;48.316;11.558;2023-04-08T00:06:57;5.68;;;4.45;;
30287;SDS011;17103;48.316;11.558;2023-04-08T00:09:23;5.03;;;4.43;;
30287;SDS011;17103;48.316;11.558;2023-04-08T00:11:48;5.05;;;4.55;;
30287;SDS011;17103;48.316;11.558;2023-04-08T00:14:14;4.75;;;4.18;;
30287;SDS011;17103;48.316;11.558;2023-04-08T00:16:40;6.05;;;4.35;;
30287;SDS011;17103;48.316;11.558;2023-04-08T00:19:05;7.57;;;5.18;;
30287;SDS011;17103;48.316;11.558;2023-04-08T00:21:31;6.35;;;4.43;;
30287;SDS011;17103;48.316;11.558;2023-04-08T00:23:57;6.68;;;4.50;;
30287;SDS011;17103;48.316;11.558;2023-04-08T00:26:22;5.20;;;3.92;;
30287;SDS011;17103;48.316;11.558;2023-04-08T00:28:48;6.30;;;4.40;;
30287;SDS011;17103;48.316;11.558;2023-04-08T00:31:16;5.75;;;4.00;;
30287;SDS011;17103;48.316;11.558;2023-04-08T00:33:42;4.72;;;4.10;;
30287;SDS011;17103;48.316;11.558;2023-04-08T00:36:07;5.57;;;4.35;;
30287;SDS011;17103;48.316;11.558;2023-04-08T00:38:33;6.78;;;3.90;;
30287;SDS011;17103;48.316;11.558;2023-04-08T00:40:59;5.97;;;3.67;;
30287;SDS011;17103;48.316;11.558;2023-04-08T00:43:25;5.32;;;3.90;;
30287;SDS011;17103;48.316;11.558;2023-04-08T00:45:51;5.80;;;4.32;;
30287;SDS011;17103;48.316;11.558;2023-04-08T00:48:16;6.50;;;5.07;;
30287;SDS011;17103;48.316;11.558;2023-04-08T00:50:42;4.82;;;4.22;;
30287;SDS011;17103;48.316;11.558;2023-04-08T00:53:08;8.88;;;4.45;;
30287;SDS011;17103;48.316;11.558;2023-04-08T00:55:34;6.32;;;4.65;;
30287;SDS011;17103;48.316;11.558;2023-04-08T00:58:00;5.57;;;4.45;;
30287;SDS011;17103;48.316;11.558;2023-04-08T01:00:26;5.82;;;4.00;;
30287;SDS011;17103;48.316;11.558;2023-04-08T01:03:13;6.95;;;5.00;;
30287;SDS011;17103;48.316;11.558;2023-04-08T01:08:14;5.68;;;4.38;;
30287;SDS011;17103;48.316;11.558;2023-04-08T01:10:41;6.45;;;4.78;;
30287;SDS011;17103;48.316;11.558;2023-04-08T01:13:12;6.68;;;4.40;;
30287;SDS011;17103;48.316;11.558;2023-04-08T01:15:41;6.35;;;5.07;;
30287;SDS011;17103;48.316;11.558;2023-04-08T01:18:09;7.47;;;5.60;;
30287;SDS011;17103;48.316;11.558;2023-04-08T01:20:37;8.15;;;6.40;;
30287;SDS011;17103;48.316;11.558;2023-04-08T01:25:33;7.32;;;4.78;;
30287;SDS011;17103;48.316;11.558;2023-04-08T01:28:04;7.73;;;4.27;;
30287;SDS011;17103;48.316;11.558;2023-04-08T01:30:33;7.13;;;4.45;;
30287;SDS011;17103;48.316;11.558;2023-04-08T01:33:00;7.38;;;4.60;;
30287;SDS011;17103;48.316;11.558;2023-04-08T01:35:27;7.38;;;4.70;;
30287;SDS011;17103;48.316;11.558;2023-04-08T01:37:54;7.55;;;3.90;;
30287;SDS011;17103;48.316;11.558;2023-04-08T01:40:21;6.72;;;4.93;;
30287;SDS011;17103;48.316;11.558;2023-04-08T01:42:47;5.32;;;4.28;;
30287;SDS011;17103;48.316;11.558;2023-04-08T01:45:14;5.55;;;4.43;;
30287;SDS011;17103;48.316;11.558;2023-04-08T01:47:44;5.63;;;3.55;;
30287;SDS011;17103;48.316;11.558;2023-04-08T01:50:13;6.13;;;5.38;;
30287;SDS011;17103;48.316;11.558;2023-04-08T01:52:41;5.28;;;4.20;;
30287;SDS011;17103;48.316;11.558;2023-04-08T01:55:08;6.30;;;4.32;;
30287;SDS011;17103;48.316;11.558;2023-04-08T01:57:35;5.72;;;3.67;;
30287;SDS011;17103;48.316;11.558;2023-04-08T02:00:04;5.80;;;3.78;;
30287;SDS011;17103;48.316;11.558;2023-04-08T02:02:32;5.30;;;4.20;;
30287;SDS011;17103;48.316;11.558;2023-04-08T02:05:00;6.45;;;4.25;;
30287;SDS011;17103;48.316;11.558;2023-04-08T02:07:26;5.78;;;4.18;;
30287;SDS011;17103;48.316;11.558;2023-04-08T02:09:52;6.20;;;3.70;;
30287;SDS011;17103;48.316;11.558;2023-04-08T02:12:17;5.40;;;3.72;;
30287;SDS011;17103;48.316;11.558;2023-04-08T02:14:43;5.55;;;3.25;;
30287;SDS011;17103;48.316;11.558;2023-04-08T02:22:40;3.70;;;3.30;;
30287;SDS011;17103;48.316;11.558;2023-04-08T02:25:15;5.60;;;4.07;;
30287;SDS011;17103;48.316;11.558;2023-04-08T02:27:43;4.38;;;3.38;;
30287;SDS011;17103;48.316;11.558;2023-04-08T02:30:13;4.85;;;3.97;;
30287;SDS011;17103;48.316;11.558;2023-04-08T02:32:40;5.03;;;3.58;;
30287;SDS011;17103;48.316;11.558;2023-04-08T02:35:07;6.68;;;3.88;;
30287;SDS011;17103;48.316;11.558;2023-04-08T02:37:34;6.38;;;4.13;;
30287;SDS011;17103;48.316;11.558;2023-04-08T02:40:02;4.50;;;3.90;;
30287;SDS011;17103;48.316;11.558;2023-04-08T02:42:28;5.63;;;4.38;;
30287;SDS011;17103;48.316;11.558;2023-04-08T02:44:54;4.85;;;3.65;;
30287;SDS011;17103;48.316;11.558;2023-04-08T02:47:21;6.97;;;3.88;;
30287;SDS011;17103;48.316;11.558;2023-04-08T02:49:47;5.97;;;3.38;;
30287;SDS011;17103;48.316;11.558;2023-04-08T02:52:12;6.47;;;3.92;;
30287;SDS011;17103;48.316;11.558;2023-04-08T02:54:39;5.28;;;3.75;;
30287;SDS011;17103;48.316;11.558;2023-04-08T02:57:05;5.03;;;3.80;;
30287;SDS011;17103;48.316;11.558;2023-04-08T02:59:33;5.57;;;4.13;;
30287;SDS011;17103;48.316;11.558;2023-04-08T03:02:01;4.80;;;3.92;;
30287;SDS011;17103;48.316;11.558;2023-04-08T03:04:27;6.18;;;4.15;;
30287;SDS011;17103;48.316;11.558;2023-04-08T03:06:53;4.10;;;3.70;;
30287;SDS011;17103;48.316;11.558;2023-04-08T03:09:18;4.22;;;3.30;;
30287;SDS011;17103;48.316;11.558;2023-04-08T03:11:47;5.90;;;4.13;;
30287;SDS011;17103;48.316;11.558;2023-04-08T03:14:18;5.28;;;3.67;;
30287;SDS011;17103;48.316;11.558;2023-04-08T03:16:46;4.38;;;3.13;;
30287;SDS011;17103;48.316;11.558;2023-04-08T03:19:12;5.65;;;3.67;;
30287;SDS011;17103;48.316;11.558;2023-04-08T03:21:38;5.72;;;3.83;;
30287;SDS011;17103;48.316;11.558;2023-04-08T03:24:03;6.18;;;3.95;;
30287;SDS011;17103;48.316;11.558;2023-04-08T03:26:29;5.20;;;4.05;;
30287;SDS011;17103;48.316;11.558;2023-04-08T03:28:55;10.55;;;6.07;;
30287;SDS011;17103;48.316;11.558;2023-04-08T03:31:23;7.00;;;4.57;;
30287;SDS011;17103;48.316;11.558;2023-04-08T03:33:49;6.75;;;3.90;;
30287;SDS011;17103;48.316;11.558;2023-04-08T03:36:15;5.55;;;3.90;;
30287;SDS011;17103;48.316;11.558;2023-04-08T03:38:40;7.70;;;4.72;;
30287;SDS011;17103;48.316;11.558;2023-04-08T03:41:06;6.97;;;4.82;;
30287;SDS011;17103;48.316;11.558;2023-04-08T03:43:32;5.35;;;3.85;;
30287;SDS011;17103;48.316;11.558;2023-04-08T03:45:57;6.07;;;4.32;;
30287;SDS011;17103;48.316;11.558;2023-04-08T03:48:23;6.03;;;4.45;;
30287;SDS011;17103;48.316;11.558;2023-04-08T03:50:49;6.72;;;5.30;;
30287;SDS011;17103;48.316;11.558;2023-04-08T03:53:19;6.82;;;4.57;;
30287;SDS011;17103;48.316;11.558;2023-04-08T03:55:45;6.53;;;4.55;;
30287;SDS011;17103;48.316;11.558;2023-04-08T03:58:14;9.35;;;5.63;;
30287;SDS011;17103;48.316;11.558;2023-04-08T04:00:42;6.60;;;4.43;;
30287;SDS011;17103;48.316;11.558;2023-04-08T04:03:07;6.97;;;4.05;;
30287;SDS011;17103;48.316;11.558;2023-04-08T04:05:36;5.72;;;4.10;;
30287;SDS011;17103;48.316;11.558;2023-04-08T04:08:03;6.68;;;4.78;;
30287;SDS011;17103;48.316;11.558;2023-04-08T04:10:28;5.72;;;4.38;;
30287;SDS011;17103;48.316;11.558;2023-04-08T04:12:54;7.22;;;5.20;;
30287;SDS011;17103;48.316;11.558;2023-04-08T04:15:20;4.85;;;4.35;;
30287;SDS011;17103;48.316;11.558;2023-04-08T04:17:48;5.15;;;4.00;;
30287;SDS011;17103;48.316;11.558;2023-04-08T04:20:15;6.20;;;5.20;;
30287;SDS011;17103;48.316;11.558;2023-04-08T04:22:44;7.57;;;5.85;;
30287;SDS011;17103;48.316;11.558;2023-04-08T04:25:09;7.00;;;5.07;;
30287;SDS011;17103;48.316;11.558;2023-04-08T04:27:35;6.32;;;5.18;;
30287;SDS011;17103;48.316;11.558;2023-04-08T04:30:01;6.30;;;3.90;;
30287;SDS011;17103;48.316;11.558;2023-04-08T04:32:27;4.47;;;3.17;;
30287;SDS011;17103;48.316;11.558;2023-04-08T04:34:53;6.38;;;4.40;;
30287;SDS011;17103;48.316;11.558;2023-04-08T04:37:18;6.80;;;4.55;;
30287;SDS011;17103;48.316;11.558;2023-04-08T04:39:44;5.95;;;4.45;;
30287;SDS011;17103;48.316;11.558;2023-04-08T04:42:10;6.63;;;4.93;;
30287;SDS011;17103;48.316;11.558;2023-04-08T04:44:36;7.85;;;4.55;;
30287;SDS011;17103;48.316;11.558;2023-04-08T04:47:02;6.40;;;4.22;;
30287;SDS011;17103;48.316;11.558;2023-04-08T04:49:28;6.00;;;4.75;;
30287;SDS011;17103;48.316;11.558;2023-04-08T04:51:54;6.82;;;4.55;;
30287;SDS011;17103;48.316;11.558;2023-04-08T04:54:19;5.57;;;4.95;;
30287;SDS011;17103;48.316;11.558;2023-04-08T04:56:45;8.13;;;5.50;;
30287;SDS011;17103;48.316;11.558;2023-04-08T04:59:14;8.45;;;5.70;;
30287;SDS011;17103;48.316;11.558;2023-04-08T05:01:40;7.78;;;5.70;;
30287;SDS011;17103;48.316;11.558;2023-04-08T05:04:06;12.10;;;7.50;;
30287;SDS011;17103;48.316;11.558;2023-04-08T05:06:33;9.13;;;6.30;;
30287;SDS011;17103;48.316;11.558;2023-04-08T05:08:58;15.55;;;7.30;;
30287;SDS011;17103;48.316;11.558;2023-04-08T05:11:24;11.95;;;6.95;;
30287;SDS011;17103;48.316;11.558;2023-04-08T05:13:50;9.85;;;6.57;;
30287;SDS011;17103;48.316;11.558;2023-04-08T05:16:15;9.23;;;5.93;;
30287;SDS011;17103;48.316;11.558;2023-04-08T05:18:41;8.38;;;5.18;;
30287;SDS011;17103;48.316;11.558;2023-04-08T05:21:07;8.90;;;6.45;;
30287;SDS011;17103;48.316;11.558;2023-04-08T05:23:36;7.70;;;5.25;;
30287;SDS011;17103;48.316;11.558;2023-04-08T05:26:05;8.00;;;5.55;;
30287;SDS011;17103;48.316;11.558;2023-04-08T05:28:31;9.90;;;6.43;;
30287;SDS011;17103;48.316;11.558;2023-04-08T05:30:57;7.63;;;5.65;;
30287;SDS011;17103;48.316;11.558;2023-04-08T05:33:22;7.68;;;5.60;;
30287;SDS011;17103;48.316;11.558;2023-04-08T05:35:50;9.60;;;6.50;;
30287;SDS011;17103;48.316;11.558;2023-04-08T05:38:16;10.43;;;6.82;;
30287;SDS011;17103;48.316;11.558;2023-04-08T05:40:45;8.65;;;6.78;;
30287;SDS011;17103;48.316;11.558;2023-04-08T05:43:12;7.15;;;5.70;;
30287;SDS011;17103;48.316;11.558;2023-04-08T05:45:38;8.43;;;6.70;;
30287;SDS011;17103;48.316;11.558;2023-04-08T05:48:03;7.43;;;5.95;;
30287;SDS011;17103;48.316;11.558;2023-04-08T05:50:29;8.15;;;6.45;;
30287;SDS011;17103;48.316;11.558;2023-04-08T05:52:55;7.05;;;5.07;;
30287;SDS011;17103;48.316;11.558;2023-04-08T05:55:20;10.35;;;7.25;;
30287;SDS011;17103;48.316;11.558;2023-04-08T05:57:46;10.73;;;7.32;;
30287;SDS011;17103;48.316;11.558;2023-04-08T06:00:11;10.13;;;7.72;;
30287;SDS011;17103;48.316;11.558;2023-04-08T06:02:38;11.77;;;7.55;;
30287;SDS011;17103;48.316;11.558;2023-04-08T06:05:07;10.70;;;6.65;;
30287;SDS011;17103;48.316;11.558;2023-04-08T06:07:33;10.98;;;7.68;;
30287;SDS011;17103;48.316;11.558;2023-04-08T06:10:02;9.68;;;7.10;;
30287;SDS011;17103;48.316;11.558;2023-04-08T06:12:34;9.40;;;7.93;;
30287;SDS011;17103;48.316;11.558;2023-04-08T06:15:00;10.63;;;8.05;;
30287;SDS011;17103;48.316;11.558;2023-04-08T06:17:26;12.57;;;8.23;;
30287;SDS011;17103;48.316;11.558;2023-04-08T06:19:52;10.98;;;8.10;;
30287;SDS011;17103;48.316;11.558;2023-04-08T06:22:20;9.68;;;7.85;;
30287;SDS011;17103;48.316;11.558;2023-04-08T06:24:46;13.23;;;9.00;;
30287;SDS011;17103;48.316;11.558;2023-04-08T06:27:12;12.82;;;9.23;;
30287;SDS011;17103;48.316;11.558;2023-04-08T06:29:38;11.93;;;8.90;;
30287;SDS011;17103;48.316;11.558;2023-04-08T06:32:06;12.40;;;9.07;;
30287;SDS011;17103;48.316;11.558;2023-04-08T06:34:31;11.43;;;8.57;;
30287;SDS011;17103;48.316;11.558;2023-04-08T06:37:05;11.95;;;9.57;;
30287;SDS011;17103;48.316;11.558;2023-04-08T06:39:31;12.02;;;9.32;;
30287;SDS011;17103;48.316;11.558;2023-04-08T06:41:56;11.90;;;9.40;;
30287;SDS011;17103;48.316;11.558;2023-04-08T06:44:22;12.40;;;8.90;;
30287;SDS011;17103;48.316;11.558;2023-04-08T06:46:48;11.43;;;9.23;;
30287;SDS011;17103;48.316;11.558;2023-04-08T06:49:14;14.25;;;10.52;;
30287;SDS011;17103;48.316;11.558;2023-04-08T06:51:39;11.23;;;8.27;;
30287;SDS011;17103;48.316;11.558;2023-04-08T06:54:05;12.63;;;10.00;;
30287;SDS011;17103;48.316;11.558;2023-04-08T06:56:31;14.80;;;9.20;;
30287;SDS011;17103;48.316;11.558;2023-04-08T06:58:57;15.45;;;8.88;;
30287;SDS011;17103;48.316;11.558;2023-04-08T07:01:23;12.50;;;8.93;;
30287;SDS011;17103;48.316;11.558;2023-04-08T07:03:49;14.32;;;10.20;;
30287;SDS011;17103;48.316;11.558;2023-04-08T07:06:15;13.05;;;9.02;;
30287;SDS011;17103;48.316;11.558;2023-04-08T07:08:40;11.55;;;9.23;;
30287;SDS011;17103;48.316;11.558;2023-04-08T07:11:06;12.90;;;9.60;;
30287;SDS011;17103;48.316;11.558;2023-04-08T07:13:32;12.10;;;8.95;;
30287;SDS011;17103;48.316;11.558;2023-04-08T07:15:58;18.40;;;10.48;;
30287;SDS011;17103;48.316;11.558;2023-04-08T07:18:24;13.80;;;9.80;;
30287;SDS011;17103;48.316;11.558;2023-04-08T07:20:51;14.07;;;9.77;;
30287;SDS011;17103;48.316;11.558;2023-04-08T07:23:18;12.07;;;9.68;;
30287;SDS011;17103;48.316;11.558;2023-04-08T07:25:45;12.73;;;9.65;;
30287;SDS011;17103;48.316;11.558;2023-04-08T07:28:11;13.93;;;9.80;;
30287;SDS011;17103;48.316;11.558;2023-04-08T07:30:36;12.90;;;9.85;;
30287;SDS011;17103;48.316;11.558;2023-04-08T07:33:05;13.15;;;9.77;;
30287;SDS011;17103;48.316;11.558;2023-04-08T07:35:31;15.38;;;10.93;;
30287;SDS011;17103;48.316;11.558;2023-04-08T07:37:57;13.48;;;9.00;;
30287;SDS011;17103;48.316;11.558;2023-04-08T07:40:23;12.77;;;9.50;;
30287;SDS011;17103;48.316;11.558;2023-04-08T07:42:49;12.75;;;9.90;;
30287;SDS011;17103;48.316;11.558;2023-04-08T07:45:15;13.20;;;9.95;;
30287;SDS011;17103;48.316;11.558;2023-04-08T07:47:40;15.10;;;9.52;;
30287;SDS011;17103;48.316;11.558;2023-04-08T07:50:06;12.50;;;9.15;;
30287;SDS011;17103;48.316;11.558;2023-04-08T07:52:32;11.07;;;9.00;;
30287;SDS011;17103;48.316;11.558;2023-04-08T07:54:58;16.73;;;9.75;;
30287;SDS011;17103;48.316;11.558;2023-04-08T07:57:24;14.15;;;10.68;;
30287;SDS011;17103;48.316;11.558;2023-04-08T07:59:50;13.00;;;9.45;;
30287;SDS011;17103;48.316;11.558;2023-04-08T08:02:17;12.57;;;8.93;;
30287;SDS011;17103;48.316;11.558;2023-04-08T08:04:42;14.48;;;11.30;;
30287;SDS011;17103;48.316;11.558;2023-04-08T08:07:08;14.25;;;9.38;;
30287;SDS011;17103;48.316;11.558;2023-04-08T08:09:33;14.95;;;11.13;;
30287;SDS011;17103;48.316;11.558;2023-04-08T08:11:59;22.30;;;14.02;;
30287;SDS011;17103;48.316;11.558;2023-04-08T08:14:25;20.45;;;14.60;;
30287;SDS011;17103;48.316;11.558;2023-04-08T08:16:51;17.00;;;12.25;;
30287;SDS011;17103;48.316;11.558;2023-04-08T08:19:18;17.25;;;11.45;;
30287;SDS011;17103;48.316;11.558;2023-04-08T08:21:47;13.13;;;9.30;;
30287;SDS011;17103;48.316;11.558;2023-04-08T08:24:13;14.40;;;9.85;;
30287;SDS011;17103;48.316;11.558;2023-04-08T08:26:38;15.52;;;10.18;;
30287;SDS011;17103;48.316;11.558;2023-04-08T08:29:04;13.43;;;9.18;;
30287;SDS011;17103;48.316;11.558;2023-04-08T08:31:32;13.57;;;9.50;;
30287;SDS011;17103;48.316;11.558;2023-04-08T08:33:58;12.73;;;8.45;;
30287;SDS011;17103;48.316;11.558;2023-04-08T08:36:24;11.43;;;8.73;;
30287;SDS011;17103;48.316;11.558;2023-04-08T08:38:51;12.88;;;9.52;;
30287;SDS011;17103;48.316;11.558;2023-04-08T08:41:18;12.82;;;9.15;;
30287;SDS011;17103;48.316;11.558;2023-04-08T08:43:44;14.75;;;9.38;;
30287;SDS011;17103;48.316;11.558;2023-04-08T08:46:10;10.80;;;8.48;;
30287;SDS011;17103;48.316;11.558;2023-04-08T08:48:39;12.18;;;8.90;;
30287;SDS011;17103;48.316;11.558;2023-04-08T08:51:08;12.48;;;8.18;;
30287;SDS011;17103;48.316;11.558;2023-04-08T08:53:36;12.25;;;8.80;;
30287;SDS011;17103;48.316;11.558;2023-04-08T08:56:02;12.00;;;8.77;;
30287;SDS011;17103;48.316;11.558;2023-04-08T08:58:28;11.90;;;9.10;;
30287;SDS011;17103;48.316;11.558;2023-04-08T09:00:54;10.85;;;7.82;;
30287;SDS011;17103;48.316;11.558;2023-04-08T09:03:24;11.43;;;8.40;;
30287;SDS011;17103;48.316;11.558;2023-04-08T09:05:56;9.88;;;8.23;;
30287;SDS011;17103;48.316;11.558;2023-04-08T09:10:53;11.68;;;8.48;;
30287;SDS011;17103;48.316;11.558;2023-04-08T09:13:23;13.77;;;10.13;;
30287;SDS011;17103;48.316;11.558;2023-04-08T09:18:28;11.85;;;9.32;;
30287;SDS011;17103;48.316;11.558;2023-04-08T09:20:53;14.43;;;9.65;;
30287;SDS011;17103;48.316;11.558;2023-04-08T09:23:19;12.05;;;9.18;;
30287;SDS011;17103;48.316;11.558;2023-04-08T09:25:44;12.77;;;9.30;;
30287;SDS011;17103;48.316;11.558;2023-04-08T09:28:22;13.80;;;9.52;;
30287;SDS011;17103;48.316;11.558;2023-04-08T09:30:48;14.07;;;10.25;;
30287;SDS011;17103;48.316;11.558;2023-04-08T09:33:14;12.98;;;9.38;;
30287;SDS011;17103;48.316;11.558;2023-04-08T09:35:40;11.57;;;9.23;;
30287;SDS011;17103;48.316;11.558;2023-04-08T09:38:07;11.32;;;8.90;;
30287;SDS011;17103;48.316;11.558;2023-04-08T09:40:33;12.25;;;9.07;;
30287;SDS011;17103;48.316;11.558;2023-04-08T09:43:04;11.43;;;8.23;;
30287;SDS011;17103;48.316;11.558;2023-04-08T09:45:32;14.45;;;9.90;;
30287;SDS011;17103;48.316;11.558;2023-04-08T09:50:39;11.10;;;8.70;;
30287;SDS011;17103;48.316;11.558;2023-04-08T09:53:12;13.13;;;10.10;;
30287;SDS011;17103;48.316;11.558;2023-04-08T09:55:40;11.63;;;9.13;;
30287;SDS011;17103;48.316;11.558;2023-04-08T09:58:14;13.88;;;10.07;;
30287;SDS011;17103;48.316;11.558;2023-04-08T10:00:46;13.65;;;10.05;;
30287;SDS011;17103;48.316;11.558;2023-04-08T10:05:49;12.35;;;9.57;;
30287;SDS011;17103;48.316;11.558;2023-04-08T10:08:16;14.45;;;10.57;;
30287;SDS011;17103;48.316;11.558;2023-04-08T10:10:42;15.10;;;9.27;;
30287;SDS011;17103;48.316;11.558;2023-04-08T10:13:11;14.07;;;9.27;;
30287;SDS011;17103;48.316;11.558;2023-04-08T10:15:37;11.90;;;9.60;;
30287;SDS011;17103;48.316;11.558;2023-04-08T10:23:02;10.20;;;7.90;;
30287;SDS011;17103;48.316;11.558;2023-04-08T10:25:46;10.38;;;7.72;;
30287;SDS011;17103;48.316;11.558;2023-04-08T10:30:44;11.13;;;9.00;;
30287;SDS011;17103;48.316;11.558;2023-04-08T10:33:12;10.27;;;7.72;;
30287;SDS011;17103;48.316;11.558;2023-04-08T10:35:59;11.23;;;8.68;;
30287;SDS011;17103;48.316;11.558;2023-04-08T10:38:31;8.95;;;7.88;;
30287;SDS011;17103;48.316;11.558;2023-04-08T10:40:56;12.07;;;9.43;;
30287;SDS011;17103;48.316;11.558;2023-04-08T10:43:22;11.45;;;9.07;;
30287;SDS011;17103;48.316;11.558;2023-04-08T10:45:48;13.23;;;9.85;;
30287;SDS011;17103;48.316;11.558;2023-04-08T10:48:20;11.38;;;8.70;;
30287;SDS011;17103;48.316;11.558;2023-04-08T10:53:28;12.50;;;9.27;;
30287;SDS011;17103;48.316;11.558;2023-04-08T10:56:05;12.10;;;9.63;;
30287;SDS011;17103;48.316;11.558;2023-04-08T10:58:52;13.63;;;9.52;;
30287;SDS011;17103;48.316;11.558;2023-04-08T11:01:20;12.02;;;9.73;;
30287;SDS011;17103;48.316;11.558;2023-04-08T11:03:49;13.48;;;9.98;;
30287;SDS011;17103;48.316;11.558;2023-04-08T11:06:15;14.90;;;10.18;;
30287;SDS011;17103;48.316;11.558;2023-04-08T11:08:41;17.23;;;10.65;;
30287;SDS011;17103;48.316;11.558;2023-04-08T11:11:09;16.70;;;10.70;;
30287;SDS011;17103;48.316;11.558;2023-04-08T11:13:39;15.45;;;10.73;;
30287;SDS011;17103;48.316;11.558;2023-04-08T11:16:06;10.70;;;8.48;;
30287;SDS011;17103;48.316;11.558;2023-04-08T11:18:36;14.05;;;10.32;;
30287;SDS011;17103;48.316;11.558;2023-04-08T11:21:08;13.70;;;9.70;;
30287;SDS011;17103;48.316;11.558;2023-04-08T11:23:35;17.03;;;10.17;;
30287;SDS011;17103;48.316;11.558;2023-04-08T11:26:01;16.98;;;9.80;;
30287;SDS011;17103;48.316;11.558;2023-04-08T11:28:28;22.52;;;11.32;;
30287;SDS011;17103;48.316;11.558;2023-04-08T11:30:54;22.27;;;11.48;;
30287;SDS011;17103;48.316;11.558;2023-04-08T11:33:20;13.63;;;9.50;;
30287;SDS011;17103;48.316;11.558;2023-04-08T11:35:49;12.75;;;9.38;;
30287;SDS011;17103;48.316;11.558;2023-04-08T11:38:21;16.42;;;10.77;;
30287;SDS011;17103;48.316;11.558;2023-04-08T11:40:57;12.70;;;9.27;;
30287;SDS011;17103;48.316;11.558;2023-04-08T11:43:26;13.38;;;9.73;;
30287;SDS011;17103;48.316;11.558;2023-04-08T11:45:52;14.60;;;10.57;;
30287;SDS011;17103;48.316;11.558;2023-04-08T11:48:21;16.92;;;10.50;;
30287;SDS011;17103;48.316;11.558;2023-04-08T11:50:47;12.40;;;9.48;;
30287;SDS011;17103;48.316;11.558;2023-04-08T11:53:28;14.07;;;9.90;;
30287;SDS011;17103;48.316;11.558;2023-04-08T11:55:53;12.23;;;9.20;;
30287;SDS011;17103;48.316;11.558;2023-04-08T11:58:20;12.02;;;8.10;;
30287;SDS011;17103;48.316;11.558;2023-04-08T12:00:45;12.52;;;8.05;;
30287;SDS011;17103;48.316;11.558;2023-04-08T12:03:11;9.65;;;7.75;;
30287;SDS011;17103;48.316;11.558;2023-04-08T12:05:40;10.95;;;8.38;;
30287;SDS011;17103;48.316;11.558;2023-04-08T12:08:06;9.18;;;7.90;;
30287;SDS011;17103;48.316;11.558;2023-04-08T12:10:32;11.43;;;8.40;;
30287;SDS011;17103;48.316;11.558;2023-04-08T12:12:59;10.65;;;6.95;;
30287;SDS011;17103;48.316;11.558;2023-04-08T12:15:25;10.57;;;7.22;;
30287;SDS011;17103;48.316;11.558;2023-04-08T12:17:50;9.93;;;6.05;;
30287;SDS011;17103;48.316;11.558;2023-04-08T12:20:16;7.35;;;6.30;;
30287;SDS011;17103;48.316;11.558;2023-04-08T12:22:42;8.40;;;5.78;;
30287;SDS011;17103;48.316;11.558;2023-04-08T12:25:09;9.68;;;6.13;;
30287;SDS011;17103;48.316;11.558;2023-04-08T12:27:35;8.50;;;5.53;;
30287;SDS011;17103;48.316;11.558;2023-04-08T12:30:01;11.35;;;6.72;;
30287;SDS011;17103;48.316;11.558;2023-04-08T12:32:28;7.90;;;5.82;;
30287;SDS011;17103;48.316;11.558;2023-04-08T12:34:55;10.25;;;6.68;;
30287;SDS011;17103;48.316;11.558;2023-04-08T12:37:20;11.10;;;6.25;;
30287;SDS011;17103;48.316;11.558;2023-04-08T12:39:46;8.43;;;6.13;;
30287;SDS011;17103;48.316;11.558;2023-04-08T12:42:12;10.70;;;7.25;;
30287;SDS011;17103;48.316;11.558;2023-04-08T12:44:38;10.32;;;6.22;;
30287;SDS011;17103;48.316;11.558;2023-04-08T12:47:06;7.43;;;4.30;;
30287;SDS011;17103;48.316;11.558;2023-04-08T12:49:33;7.97;;;4.93;;
30287;SDS011;17103;48.316;11.558;2023-04-08T12:52:01;10.02;;;5.55;;
30287;SDS011;17103;48.316;11.558;2023-04-08T12:54:27;9.98;;;5.97;;
30287;SDS011;17103;48.316;11.558;2023-04-08T12:56:53;14.52;;;5.40;;
30287;SDS011;17103;48.316;11.558;2023-04-08T12:59:19;8.40;;;5.40;;
30287;SDS011;17103;48.316;11.558;2023-04-08T13:01:47;8.50;;;5.60;;
30287;SDS011;17103;48.316;11.558;2023-04-08T13:04:13;6.03;;;4.88;;
30287;SDS011;17103;48.316;11.558;2023-04-08T13:06:38;8.98;;;6.22;;
30287;SDS011;17103;48.316;11.558;2023-04-08T13:09:04;9.20;;;5.82;;
30287;SDS011;17103;48.316;11.558;2023-04-08T13:11:30;10.38;;;6.25;;
30287;SDS011;17103;48.316;11.558;2023-04-08T13:13:58;13.48;;;6.40;;
30287;SDS011;17103;48.316;11.558;2023-04-08T13:16:24;9.77;;;5.55;;
30287;SDS011;17103;48.316;11.558;2023-04-08T13:18:50;10.68;;;6.10;;
30287;SDS011;17103;48.316;11.558;2023-04-08T13:21:16;6.70;;;5.05;;
30287;SDS011;17103;48.316;11.558;2023-04-08T13:23:42;10.35;;;7.88;;
30287;SDS011;17103;48.316;11.558;2023-04-08T13:26:08;7.90;;;6.32;;
30287;SDS011;17103;48.316;11.558;2023-04-08T13:28:35;9.02;;;6.78;;
30287;SDS011;17103;48.316;11.558;2023-04-08T13:31:00;9.70;;;5.40;;
30287;SDS011;17103;48.316;11.558;2023-04-08T13:33:26;10.07;;;6.53;;
30287;SDS011;17103;48.316;11.558;2023-04-08T13:35:55;12.68;;;7.95;;
30287;SDS011;17103;48.316;11.558;2023-04-08T13:38:20;10.30;;;6.85;;
30287;SDS011;17103;48.316;11.558;2023-04-08T13:40:46;10.73;;;6.60;;
30287;SDS011;17103;48.316;11.558;2023-04-08T13:43:12;8.25;;;6.05;;
30287;SDS011;17103;48.316;11.558;2023-04-08T13:45:39;9.63;;;7.13;;
30287;SDS011;17103;48.316;11.558;2023-04-08T13:48:04;7.75;;;5.97;;
30287;SDS011;17103;48.316;11.558;2023-04-08T13:50:30;8.85;;;5.95;;
30287;SDS011;17103;48.316;11.558;2023-04-08T13:52:56;8.50;;;6.57;;
30287;SDS011;17103;48.316;11.558;2023-04-08T13:55:22;8.43;;;6.80;;
30287;SDS011;17103;48.316;11.558;2023-04-08T13:58:01;10.98;;;7.25;;
30287;SDS011;17103;48.316;11.558;2023-04-08T14:00:28;10.02;;;7.05;;
30287;SDS011;17103;48.316;11.558;2023-04-08T14:02:55;10.35;;;6.95;;
30287;SDS011;17103;48.316;11.558;2023-04-08T14:05:20;10.23;;;7.55;;
30287;SDS011;17103;48.316;11.558;2023-04-08T14:07:46;11.73;;;8.00;;
30287;SDS011;17103;48.316;11.558;2023-04-08T14:10:15;8.73;;;7.47;;
30287;SDS011;17103;48.316;11.558;2023-04-08T14:12:41;11.30;;;7.45;;
30287;SDS011;17103;48.316;11.558;2023-04-08T14:15:08;13.23;;;8.18;;
30287;SDS011;17103;48.316;11.558;2023-04-08T14:17:36;12.52;;;7.90;;
30287;SDS011;17103;48.316;11.558;2023-04-08T14:20:11;11.13;;;8.65;;
30287;SDS011;17103;48.316;11.558;2023-04-08T14:22:36;12.27;;;8.48;;
30287;SDS011;17103;48.316;11.558;2023-04-08T14:25:02;11.95;;;8.27;;
30287;SDS011;17103;48.316;11.558;2023-04-08T14:27:35;10.18;;;7.93;;
30287;SDS011;17103;48.316;11.558;2023-04-08T14:30:07;9.05;;;6.97;;
30287;SDS011;17103;48.316;11.558;2023-04-08T14:32:36;11.95;;;8.30;;
30287;SDS011;17103;48.316;11.558;2023-04-08T14:35:02;13.85;;;8.43;;
30287;SDS011;17103;48.316;11.558;2023-04-08T14:37:28;11.73;;;8.63;;
30287;SDS011;17103;48.316;11.558;2023-04-08T14:39:55;10.13;;;8.05;;
30287;SDS011;17103;48.316;11.558;2023-04-08T14:42:23;10.00;;;7.63;;
30287;SDS011;17103;48.316;11.558;2023-04-08T14:47:43;11.52;;;7.53;;
30287;SDS011;17103;48.316;11.558;2023-04-08T14:50:08;10.63;;;7.53;;
30287;SDS011;17103;48.316;11.558;2023-04-08T14:52:34;9.95;;;7.47;;
30287;SDS011;17103;48.316;11.558;2023-04-08T14:55:00;11.07;;;8.20;;
30287;SDS011;17103;48.316;11.558;2023-04-08T14:57:26;10.93;;;8.27;;
30287;SDS011;17103;48.316;11.558;2023-04-08T14:59:52;10.93;;;7.95;;